Time;durP1;ratioP1;P1;durP2;ratioP2;P2;SDS_P1;SDS_P2;PMS_P1;PMS_P2;Temp;Humidity;BMP_temperature;BMP_pressure;BME280_temperature;BME280_humidity;BME280_pressure;Samples;Min_cycle;Max_cycle;Signal;HPM_P1;HPM_P2
2021/12/12 00:01:49;;;;;;;26.48;14.18;;;;;;;-0.45;100.00;100335.19;6720482;26;34952;-70
2021/12/12 00:04:53;;;;;;;27.37;15.05;;;;;;;-0.39;100.00;100344.38;6720467;26;34328;-70
2021/12/12 00:07:56;;;;;;;22.60;13.85;;;;;;;-0.35;100.00;100344.06;6720407;26;34020;-70
2021/12/12 00:11:05;;;;;;;25.37;13.62;;;;;;;-0.34;100.00;100337.09;6720445;26;34413;-70
2021/12/12 00:14:20;;;;;;;25.65;13.15;;;;;;;-0.38;100.00;100356.44;6720314;26;34677;-70
2021/12/12 00:17:24;;;;;;;31.25;14.70;;;;;;;-0.31;100.00;100369.00;6700677;26;34417;-70
2021/12/12 00:20:28;;;;;;;25.65;13.77;;;;;;;-0.32;100.00;100367.31;6720416;26;34603;-70
2021/12/12 00:23:32;;;;;;;28.90;15.30;;;;;;;-0.38;100.00;100361.66;6711217;26;33983;-69
2021/12/12 00:26:34;;;;;;;28.02;14.32;;;;;;;-0.35;100.00;100367.53;6700830;26;33959;-70
2021/12/12 00:29:37;;;;;;;28.52;14.23;;;;;;;-0.39;100.00;100367.84;6700636;26;34566;-69
2021/12/12 00:32:40;;;;;;;27.27;14.32;;;;;;;-0.36;100.00;100376.28;6720182;26;34202;-70
2021/12/12 00:35:43;;;;;;;25.37;14.38;;;;;;;-0.38;100.00;100380.75;6719990;26;34178;-70
2021/12/12 00:38:52;;;;;;;27.58;14.73;;;;;;;-0.38;100.00;100370.31;6720347;26;34704;-70
2021/12/12 00:42:00;;;;;;;24.35;11.57;;;;;;;-0.40;100.00;100353.13;6720323;26;34661;-69
2021/12/12 00:45:10;;;;;;;26.67;12.40;;;;;;;-0.42;100.00;100361.03;6720741;26;33963;-69
2021/12/12 00:48:13;;;;;;;27.85;13.13;;;;;;;-0.44;100.00;100357.72;6720181;26;34091;-70
2021/12/12 00:51:27;;;;;;;25.17;12.52;;;;;;;-0.48;100.00;100346.63;6720564;26;34167;-70
2021/12/12 00:54:33;;;;;;;32.05;12.55;;;;;;;-0.50;100.00;100356.31;6719989;26;34242;-70
2021/12/12 00:57:36;;;;;;;23.85;11.52;;;;;;;-0.53;100.00;100376.50;6711629;26;34407;-69
2021/12/12 01:00:48;;;;;;;28.65;13.40;;;;;;;-0.58;100.00;100378.59;6720674;26;35307;-69
2021/12/12 01:03:56;;;;;;;27.73;13.60;;;;;;;-0.58;100.00;100379.41;6720055;26;34847;-69
2021/12/12 01:07:04;;;;;;;29.67;15.30;;;;;;;-0.59;100.00;100382.13;6720758;26;34737;-69
2021/12/12 01:10:16;;;;;;;24.02;11.73;;;;;;;-0.65;100.00;100392.94;6720382;26;33966;-71
2021/12/12 01:13:20;;;;;;;21.37;11.15;;;;;;;-0.61;100.00;100397.00;6720200;26;34021;-69
2021/12/12 01:16:25;;;;;;;26.95;13.60;;;;;;;-0.58;100.00;100402.84;6700278;26;33907;-69
2021/12/12 01:19:35;;;;;;;30.20;13.80;;;;;;;-0.61;100.00;100407.44;6720093;26;34062;-70
2021/12/12 01:22:40;;;;;;;27.08;14.20;;;;;;;-0.69;100.00;100407.09;6720130;26;34427;-70
2021/12/12 01:25:46;;;;;;;32.35;15.77;;;;;;;-0.70;100.00;100398.44;6720063;26;34739;-70
2021/12/12 01:28:54;;;;;;;32.22;14.63;;;;;;;-0.67;100.00;100400.84;6720508;26;34454;-70
2021/12/12 01:32:00;;;;;;;33.33;17.50;;;;;;;-0.69;100.00;100401.88;6720446;26;33857;-69
2021/12/12 01:35:13;;;;;;;29.05;14.48;;;;;;;-0.63;100.00;100406.72;6719530;26;34297;-68
2021/12/12 01:42:06;;;;;;;37.28;17.95;;;;;;;-0.70;100.00;100416.66;6722537;26;33977;-69
2021/12/12 01:45:12;;;;;;;34.40;16.98;;;;;;;-0.67;100.00;100410.41;6704198;26;34449;-69
2021/12/12 01:48:21;;;;;;;34.90;16.48;;;;;;;-0.71;100.00;100414.16;6723104;26;33966;-70
2021/12/12 01:51:25;;;;;;;36.85;18.23;;;;;;;-0.73;100.00;100403.00;6703424;26;34589;-70
2021/12/12 01:54:42;;;;;;;30.67;17.48;;;;;;;-0.75;100.00;100423.09;6722926;26;34829;-70
2021/12/12 01:57:45;;;;;;;35.90;18.67;;;;;;;-0.75;100.00;100405.69;6722812;26;34042;-68
2021/12/12 02:01:07;;;;;;;34.88;18.20;;;;;;;-0.75;100.00;100413.50;6703209;26;34075;-69
2021/12/12 02:04:15;;;;;;;43.78;19.52;;;;;;;-0.80;100.00;100420.78;6722796;26;34575;-67
2021/12/12 02:07:28;;;;;;;34.47;18.67;;;;;;;-0.81;100.00;100424.28;6722781;26;34940;-67
2021/12/12 02:10:36;;;;;;;37.97;18.62;;;;;;;-0.82;100.00;100419.19;6722793;26;34657;-70
2021/12/12 02:13:41;;;;;;;37.83;19.30;;;;;;;-0.80;100.00;100417.31;6722895;26;33954;-70
2021/12/12 02:16:50;;;;;;;36.92;18.77;;;;;;;-0.79;100.00;100412.03;6722770;26;34039;-68
2021/12/12 02:20:07;;;;;;;40.58;18.00;;;;;;;-0.77;100.00;100424.94;6703066;26;34006;-69
2021/12/12 02:23:21;;;;;;;37.42;19.48;;;;;;;-0.79;100.00;100401.59;6722679;26;34721;-67
2021/12/12 02:36:34;;;;;;;40.03;19.48;;;;;;;-0.82;100.00;100416.59;6717776;26;130787;-69
2021/12/12 02:39:39;;;;;;;38.15;19.48;;;;;;;-0.77;100.00;100419.72;6722897;26;34636;-70
2021/12/12 02:42:42;;;;;;;38.75;20.30;;;;;;;-0.85;100.00;100414.16;6702927;26;34457;-70
2021/12/12 02:45:46;;;;;;;41.97;20.33;;;;;;;-0.80;100.00;100419.94;6722595;26;34440;-70
2021/12/12 02:48:52;;;;;;;36.75;16.85;;;;;;;-0.78;100.00;100424.13;6722541;26;34096;-69
2021/12/12 02:51:55;;;;;;;48.08;17.75;;;;;;;-0.77;100.00;100419.72;6721496;26;34623;-69
2021/12/12 02:55:00;;;;;;;38.53;17.05;;;;;;;-0.73;100.00;100426.44;6721184;26;34269;-70
2021/12/12 02:58:05;;;;;;;38.45;17.98;;;;;;;-0.73;100.00;100435.09;6721137;26;34492;-68
2021/12/12 03:01:20;;;;;;;39.63;16.62;;;;;;;-0.71;100.00;100441.03;6720676;26;33973;-68
2021/12/12 03:04:25;;;;;;;36.22;16.70;;;;;;;-0.72;100.00;100431.53;6720629;26;34660;-68
2021/12/12 03:07:28;;;;;;;40.65;17.58;;;;;;;-0.68;100.00;100438.25;6720741;26;34438;-69
2021/12/12 03:10:35;;;;;;;35.97;16.30;;;;;;;-0.70;100.00;100439.28;6720531;26;34308;-69
2021/12/12 03:13:41;;;;;;;38.13;17.98;;;;;;;-0.71;100.00;100425.41;6720804;26;34399;-69
2021/12/12 03:16:44;;;;;;;33.78;16.33;;;;;;;-0.69;100.00;100430.53;6701207;26;34641;-69
2021/12/12 03:19:51;;;;;;;42.70;16.05;;;;;;;-0.69;100.00;100415.75;6721068;26;34613;-69
2021/12/12 03:22:59;;;;;;;37.20;16.50;;;;;;;-0.71;100.00;100432.38;6720559;26;34817;-69
2021/12/12 03:26:06;;;;;;;45.17;19.23;;;;;;;-0.68;100.00;100440.87;6701372;26;34450;-68
2021/12/12 03:29:08;;;;;;;39.00;19.40;;;;;;;-0.72;100.00;100441.13;6720583;26;34867;-69
2021/12/12 03:32:15;;;;;;;41.17;17.58;;;;;;;-0.73;100.00;100444.69;6720499;26;34747;-68
2021/12/12 03:35:17;;;;;;;33.58;15.88;;;;;;;-0.74;100.00;100443.84;6720791;26;33938;-68
2021/12/12 03:38:27;;;;;;;36.35;17.65;;;;;;;-0.73;100.00;100462.91;6720420;26;34075;-68
2021/12/12 03:41:32;;;;;;;36.50;18.40;;;;;;;-0.69;100.00;100467.00;6720539;26;34757;-69
2021/12/12 03:44:38;;;;;;;33.45;16.02;;;;;;;-0.73;100.00;100462.91;6720501;26;33991;-69
2021/12/12 03:47:48;;;;;;;32.13;12.48;;;;;;;-0.75;100.00;100476.03;6720837;26;33904;-69
2021/12/12 03:50:54;;;;;;;30.70;14.63;;;;;;;-0.74;100.00;100487.28;6720505;26;34098;-68
2021/12/12 03:53:57;;;;;;;30.77;13.75;;;;;;;-0.76;100.00;100491.72;6721022;26;34336;-68
2021/12/12 03:57:01;;;;;;;34.05;16.40;;;;;;;-0.71;100.00;100508.75;6720423;26;34053;-69
2021/12/12 04:00:08;;;;;;;34.38;15.13;;;;;;;-0.74;100.00;100495.94;6720420;26;34626;-70
2021/12/12 04:03:14;;;;;;;32.40;13.15;;;;;;;-0.78;100.00;100511.84;6720650;26;33895;-68
2021/12/12 04:06:21;;;;;;;33.28;14.52;;;;;;;-0.73;100.00;100517.63;6720867;26;34461;-68
2021/12/12 04:09:25;;;;;;;31.77;14.07;;;;;;;-0.74;100.00;100516.78;6720394;26;34429;-69
2021/12/12 04:12:28;;;;;;;30.45;15.18;;;;;;;-0.76;100.00;100516.00;6720390;26;34266;-70
2021/12/12 04:15:31;;;;;;;28.12;13.27;;;;;;;-0.73;100.00;100515.84;6711085;26;34463;-68
2021/12/12 04:18:34;;;;;;;32.47;16.30;;;;;;;-0.75;100.00;100519.47;6720802;26;34706;-69
2021/12/12 04:21:38;;;;;;;34.88;17.83;;;;;;;-0.74;100.00;100523.75;6720290;26;34709;-69
2021/12/12 04:24:44;;;;;;;35.97;15.88;;;;;;;-0.75;100.00;100519.47;6700737;26;34745;-69
2021/12/12 04:27:47;;;;;;;32.45;14.55;;;;;;;-0.79;100.00;100536.22;6720367;26;34089;-68
2021/12/12 04:30:50;;;;;;;29.60;13.32;;;;;;;-0.84;100.00;100530.44;6720422;26;34623;-69
2021/12/12 04:33:53;;;;;;;32.42;14.70;;;;;;;-0.81;100.00;100541.50;6720214;26;34748;-70
2021/12/12 04:36:56;;;;;;;30.73;15.18;;;;;;;-0.79;100.00;100525.78;6720030;26;34638;-69
2021/12/12 04:40:01;;;;;;;29.48;13.45;;;;;;;-0.77;100.00;100514.34;6720367;26;34286;-68
2021/12/12 04:43:05;;;;;;;35.55;14.73;;;;;;;-0.79;100.00;100508.41;6720089;26;34659;-68
2021/12/12 04:46:22;;;;;;;34.63;14.52;;;;;;;-0.80;100.00;100522.34;6720655;26;34458;-68
2021/12/12 04:52:56;;;;;;;30.20;14.50;;;;;;;-0.79;100.00;100533.59;6720318;26;34075;-70
2021/12/12 04:56:09;;;;;;;29.60;13.85;;;;;;;-0.80;100.00;100509.31;6720318;26;33960;-68
2021/12/12 04:59:33;;;;;;;29.77;13.15;;;;;;;-0.73;100.00;100515.00;6720320;26;34471;-68
2021/12/12 05:03:21;;;;;;;36.22;16.12;;;;;;;-0.74;100.00;100523.75;6720695;26;33870;-68
2021/12/12 05:06:33;;;;;;;33.30;15.50;;;;;;;-0.81;100.00;100518.06;6678408;26;34228;-69
2021/12/12 05:10:06;;;;;;;39.20;16.33;;;;;;;-0.85;100.00;100516.56;6720112;26;35463;-68
2021/12/12 05:13:38;;;;;;;29.60;14.70;;;;;;;-0.85;100.00;100510.53;6720145;26;35260;-68
2021/12/12 05:16:44;;;;;;;36.00;17.12;;;;;;;-0.84;100.00;100514.81;6719572;26;34861;-68
2021/12/12 05:19:58;;;;;;;38.15;18.05;;;;;;;-0.88;100.00;100525.41;6720061;26;34662;-68
2021/12/12 05:23:08;;;;;;;39.05;17.75;;;;;;;-0.84;100.00;100509.59;6720151;26;34001;-68
2021/12/12 05:26:15;;;;;;;38.22;17.52;;;;;;;-0.90;100.00;100524.66;6720116;26;34506;-69
2021/12/12 05:29:25;;;;;;;36.15;17.08;;;;;;;-0.85;99.92;100536.56;6720140;26;33638;-68
2021/12/12 05:32:30;;;;;;;35.55;17.40;;;;;;;-0.83;99.66;100532.97;6720039;26;33988;-69
2021/12/12 05:35:36;;;;;;;34.50;17.33;;;;;;;-0.91;100.00;100535.16;6719918;26;35283;-68
2021/12/12 05:38:42;;;;;;;38.33;17.98;;;;;;;-0.85;99.81;100528.75;6719721;26;34626;-69
2021/12/12 05:41:47;;;;;;;33.67;14.40;;;;;;;-0.84;99.31;100528.66;6720061;26;34372;-69
2021/12/12 05:44:50;;;;;;;28.77;13.27;;;;;;;-0.76;98.77;100528.19;6719952;26;34595;-69
2021/12/12 05:47:54;;;;;;;31.95;13.93;;;;;;;-0.77;98.46;100540.38;6719867;26;34293;-69
2021/12/12 05:50:59;;;;;;;35.53;15.32;;;;;;;-0.68;97.86;100536.41;6720247;26;34651;-69
2021/12/12 05:54:04;;;;;;;35.65;15.60;;;;;;;-0.69;97.53;100535.56;6719912;26;33983;-69
2021/12/12 05:57:09;;;;;;;32.90;15.25;;;;;;;-0.69;98.03;100538.19;6719667;26;34695;-68
2021/12/12 06:00:15;;;;;;;30.73;13.30;;;;;;;-0.69;97.71;100532.13;6719876;26;34075;-69
2021/12/12 06:03:22;;;;;;;35.25;15.82;;;;;;;-0.61;96.86;100543.75;6719740;26;34690;-69
2021/12/12 06:06:29;;;;;;;34.55;15.15;;;;;;;-0.62;96.65;100541.22;6719820;26;34049;-69
2021/12/12 06:09:34;;;;;;;32.05;14.87;;;;;;;-0.63;96.71;100547.41;6710449;26;34545;-68
2021/12/12 06:12:39;;;;;;;32.78;15.95;;;;;;;-0.64;96.46;100551.75;6719675;26;34455;-68
2021/12/12 06:15:45;;;;;;;31.55;15.63;;;;;;;-0.71;96.95;100550.44;6719537;26;33954;-69
2021/12/12 06:18:52;;;;;;;34.22;16.50;;;;;;;-0.71;96.62;100553.03;6719769;26;34197;-70
2021/12/12 06:21:57;;;;;;;32.45;15.77;;;;;;;-0.71;96.66;100553.03;6719621;26;34716;-68
2021/12/12 06:25:01;;;;;;;32.15;16.25;;;;;;;-0.74;96.91;100558.44;6719573;26;34458;-68
2021/12/12 06:28:17;;;;;;;32.72;14.13;;;;;;;-0.76;96.80;100564.66;6720593;26;34376;-68
2021/12/12 06:31:20;;;;;;;31.02;13.10;;;;;;;-0.76;96.95;100572.47;6720787;26;34045;-68
2021/12/12 06:34:23;;;;;;;29.05;12.88;;;;;;;-0.75;96.93;100576.78;6720867;26;33990;-69
2021/12/12 06:37:27;;;;;;;28.45;13.27;;;;;;;-0.73;96.68;100577.53;6720816;26;34046;-69
2021/12/12 06:40:30;;;;;;;27.95;11.40;;;;;;;-0.77;96.65;100573.41;6720845;26;35313;-68
2021/12/12 06:43:34;;;;;;;27.83;12.18;;;;;;;-0.72;96.31;100579.19;6711717;26;34122;-68
2021/12/12 06:46:39;;;;;;;27.15;11.48;;;;;;;-0.66;95.43;100579.66;6720693;26;34937;-68
2021/12/12 06:49:42;;;;;;;25.60;12.80;;;;;;;-0.62;95.48;100578.53;6720103;26;34173;-68
2021/12/12 06:52:47;;;;;;;22.35;10.75;;;;;;;-0.62;94.88;100586.34;6720579;26;34710;-68
2021/12/12 06:55:50;;;;;;;26.45;12.73;;;;;;;-0.59;94.84;100577.53;6720736;26;34569;-68
2021/12/12 06:58:57;;;;;;;22.58;10.35;;;;;;;-0.60;94.76;100578.47;6720687;26;34459;-69
2021/12/12 07:02:05;;;;;;;23.65;9.68;;;;;;;-0.61;94.64;100589.81;6720902;26;34329;-69
2021/12/12 07:05:13;;;;;;;26.23;11.07;;;;;;;-0.53;94.24;100575.38;6720680;26;34511;-69
2021/12/12 07:08:19;;;;;;;22.13;9.88;;;;;;;-0.55;94.68;100587.69;6700971;26;34600;-68
2021/12/12 07:11:25;;;;;;;25.73;11.02;;;;;;;-0.54;94.25;100594.56;6720777;26;33863;-68
2021/12/12 07:14:27;;;;;;;23.00;10.32;;;;;;;-0.51;94.16;100602.19;6720718;26;34107;-68
2021/12/12 07:17:30;;;;;;;22.48;10.50;;;;;;;-0.53;94.53;100591.00;6720564;26;34751;-69
2021/12/12 07:20:33;;;;;;;18.05;8.45;;;;;;;-0.49;93.97;100591.69;6711346;26;34863;-69
2021/12/12 07:23:39;;;;;;;21.35;10.52;;;;;;;-0.39;93.49;100608.44;6720791;26;34403;-69
2021/12/12 07:26:43;;;;;;;21.35;9.30;;;;;;;-0.44;93.55;100594.84;6720603;26;34040;-69
2021/12/12 07:29:45;;;;;;;19.55;8.95;;;;;;;-0.37;93.37;100601.34;6701249;26;34662;-70
2021/12/12 07:32:48;;;;;;;18.87;9.02;;;;;;;-0.35;93.06;100586.47;6720546;26;34710;-69
2021/12/12 07:35:52;;;;;;;19.45;9.52;;;;;;;-0.35;93.03;100578.66;6720311;26;34090;-69
2021/12/12 07:38:59;;;;;;;19.95;8.77;;;;;;;-0.32;92.76;100591.50;6719948;26;34720;-68
2021/12/12 07:42:04;;;;;;;22.58;9.80;;;;;;;-0.29;92.55;100586.06;6720384;26;33928;-69
2021/12/12 07:45:08;;;;;;;18.37;8.85;;;;;;;-0.31;92.92;100595.78;6700761;26;34639;-69
2021/12/12 07:48:12;;;;;;;20.10;9.68;;;;;;;-0.30;92.70;100594.84;6720914;26;34144;-69
2021/12/12 07:51:17;;;;;;;21.25;10.63;;;;;;;-0.29;92.67;100583.47;6720278;26;34230;-69
2021/12/12 07:54:20;;;;;;;17.62;8.55;;;;;;;-0.21;91.94;100599.50;6720509;26;33975;-69
2021/12/12 07:57:26;;;;;;;17.92;9.30;;;;;;;-0.25;92.32;100602.41;6720345;26;34302;-68
2021/12/12 08:00:30;;;;;;;16.58;8.32;;;;;;;-0.25;92.25;100608.44;6720777;26;34044;-68
2021/12/12 08:03:35;;;;;;;18.80;9.60;;;;;;;-0.10;91.41;100601.47;6720340;26;34502;-69
2021/12/12 08:06:39;;;;;;;22.13;10.13;;;;;;;-0.10;91.24;100594.44;6720646;26;33991;-68
2021/12/12 08:09:43;;;;;;;19.00;10.07;;;;;;;-0.05;90.88;100594.19;6720491;26;34043;-69
2021/12/12 08:12:46;;;;;;;20.90;10.43;;;;;;;0.02;90.49;100589.41;6700351;26;34179;-68
2021/12/12 08:15:52;;;;;;;21.55;10.55;;;;;;;0.08;89.86;100592.47;6719743;26;34785;-69
2021/12/12 08:18:58;;;;;;;16.98;8.45;;;;;;;0.10;89.69;100602.81;6720807;26;34759;-69
2021/12/12 08:22:04;;;;;;;20.98;9.15;;;;;;;0.10;89.53;100602.81;6720144;26;34123;-69
2021/12/12 08:25:09;;;;;;;18.52;8.50;;;;;;;0.09;89.61;100615.03;6720714;26;34112;-70
2021/12/12 08:28:14;;;;;;;20.33;9.27;;;;;;;0.20;89.16;100620.41;6720533;26;32520;-69
2021/12/12 08:31:17;;;;;;;17.85;9.77;;;;;;;0.13;88.99;100616.50;6700065;26;34640;-69
2021/12/12 08:34:20;;;;;;;17.40;8.70;;;;;;;0.20;88.44;100612.56;6719927;26;35446;-69
2021/12/12 08:37:26;;;;;;;15.60;7.60;;;;;;;0.24;88.70;100621.06;6719724;26;34860;-69
2021/12/12 08:40:33;;;;;;;16.23;8.35;;;;;;;0.39;87.39;100622.69;6720335;26;33978;-69
2021/12/12 08:43:36;;;;;;;16.75;8.50;;;;;;;0.49;86.63;100618.56;6720308;26;33973;-69
2021/12/12 08:46:42;;;;;;;17.85;8.45;;;;;;;0.50;86.84;100619.38;6720131;26;34010;-69
2021/12/12 08:49:45;;;;;;;16.52;7.90;;;;;;;0.57;86.40;100618.06;6719604;26;34235;-69
2021/12/12 08:52:49;;;;;;;18.70;7.95;;;;;;;0.64;85.91;100628.00;6720444;26;34147;-69
2021/12/12 08:55:56;;;;;;;16.65;8.20;;;;;;;0.62;85.55;100619.47;6720280;26;34063;-69
2021/12/12 08:59:00;;;;;;;17.33;8.43;;;;;;;0.69;85.54;100622.50;6720080;26;34461;-69
2021/12/12 09:02:10;;;;;;;13.30;6.45;;;;;;;0.66;85.68;100613.09;6720295;26;34721;-68
2021/12/12 09:05:17;;;;;;;18.83;8.13;;;;;;;0.72;85.75;100609.25;6720291;26;34183;-70
2021/12/12 09:08:54;;;;;;;16.20;8.05;;;;;;;0.68;85.12;100615.59;6720329;26;34541;-69
2021/12/12 09:12:05;;;;;;;14.23;7.47;;;;;;;0.70;85.80;100625.00;6700657;26;34586;-69
2021/12/12 09:15:10;;;;;;;17.60;7.82;;;;;;;0.72;85.42;100617.94;6720301;26;33959;-69
2021/12/12 09:18:20;;;;;;;15.55;7.07;;;;;;;0.76;85.57;100619.41;6720309;26;34203;-69
2021/12/12 09:21:29;;;;;;;17.87;8.52;;;;;;;0.78;85.11;100607.06;6719992;26;35309;-69
2021/12/12 09:24:51;;;;;;;13.57;6.00;;;;;;;0.77;85.17;100602.81;6719899;26;34177;-69
2021/12/12 09:28:02;;;;;;;14.43;7.40;;;;;;;0.81;84.70;100608.66;6719910;26;34589;-69
2021/12/12 09:31:19;;;;;;;12.70;6.53;;;;;;;0.90;84.66;100618.50;6719968;26;34112;-69
2021/12/12 09:34:53;;;;;;;11.77;6.80;;;;;;;0.88;84.57;100602.91;6719998;26;34064;-69
2021/12/12 09:38:01;;;;;;;13.93;6.70;;;;;;;0.86;84.32;100603.97;6696074;26;34001;-69
2021/12/12 09:41:30;;;;;;;15.00;7.60;;;;;;;0.90;84.36;100581.94;6719388;26;34098;-68
2021/12/12 09:44:55;;;;;;;15.02;7.75;;;;;;;0.92;84.43;100592.28;6719803;26;34601;-68
2021/12/12 09:51:14;;;;;;;12.13;6.82;;;;;;;0.96;84.23;100589.37;6719794;26;34014;-69
2021/12/12 09:52:23;;;;;;;12.13;6.12;;;;;;;1.00;84.21;100590.00;6719056;26;34091;-70
2021/12/12 09:55:36;;;;;;;12.50;5.57;;;;;;;1.03;84.35;100593.22;6719532;26;34099;-69
2021/12/12 09:58:44;;;;;;;13.02;6.60;;;;;;;1.13;83.69;100586.47;6719402;26;35453;-70
2021/12/12 10:01:51;;;;;;;10.38;5.90;;;;;;;1.19;83.21;100590.44;6720234;26;33999;-67
2021/12/12 10:05:32;;;;;;;11.07;5.80;;;;;;;1.21;83.40;100597.22;6720965;26;34353;-68
2021/12/12 10:08:52;;;;;;;12.95;5.90;;;;;;;1.22;82.83;100596.28;6720883;26;34092;-69
2021/12/12 10:12:01;;;;;;;13.60;6.25;;;;;;;1.33;82.64;100590.34;6720866;26;34421;-69
2021/12/12 10:15:11;;;;;;;13.43;5.93;;;;;;;1.42;82.17;100599.34;6721055;26;35224;-69
2021/12/12 10:18:24;;;;;;;14.30;6.40;;;;;;;1.43;82.27;100591.41;6720718;26;34080;-69
2021/12/12 10:21:41;;;;;;;10.98;5.60;;;;;;;1.44;82.02;100587.84;6720674;26;33984;-70
2021/12/12 10:24:54;;;;;;;9.98;5.40;;;;;;;1.58;81.52;100595.56;6720696;26;34102;-70
2021/12/12 10:27:59;;;;;;;14.50;7.15;;;;;;;1.65;80.78;100601.19;6720991;26;33983;-69
2021/12/12 10:31:02;;;;;;;9.73;5.00;;;;;;;1.69;81.02;100603.50;6720721;26;34626;-69
2021/12/12 10:34:17;;;;;;;12.30;5.95;;;;;;;1.72;81.26;100598.06;6720727;26;35218;-69
2021/12/12 10:37:40;;;;;;;11.18;6.10;;;;;;;1.81;80.39;100588.75;6720528;26;34034;-70
2021/12/12 10:40:52;;;;;;;10.45;5.12;;;;;;;1.85;80.44;100579.75;6720871;26;34375;-69
2021/12/12 10:44:05;;;;;;;7.65;4.72;;;;;;;1.87;80.42;100590.94;6720725;26;34464;-69
2021/12/12 10:47:42;;;;;;;8.50;5.15;;;;;;;1.99;79.51;100581.38;6720549;26;34541;-70
2021/12/12 10:51:03;;;;;;;10.75;5.60;;;;;;;2.04;79.43;100587.97;6684715;26;34532;-69
2021/12/12 10:54:19;;;;;;;10.40;4.53;;;;;;;2.04;79.45;100594.97;6720722;26;34461;-68
2021/12/12 10:57:28;;;;;;;9.45;4.90;;;;;;;2.11;79.00;100583.16;6720488;26;34874;-69
2021/12/12 11:00:36;;;;;;;8.40;4.12;;;;;;;2.13;79.08;100589.13;6719958;26;33911;-69
2021/12/12 11:03:49;;;;;;;8.85;4.62;;;;;;;2.13;78.99;100589.13;6719827;26;34212;-69
2021/12/12 11:07:06;;;;;;;8.20;4.65;;;;;;;2.24;78.68;100583.09;6720356;26;33953;-69
2021/12/12 11:10:19;;;;;;;8.98;4.68;;;;;;;2.23;78.73;100584.06;6720763;26;34002;-69
2021/12/12 11:13:31;;;;;;;11.15;4.53;;;;;;;2.25;79.22;100592.63;6720328;26;33972;-69
2021/12/12 11:16:38;;;;;;;11.15;4.65;;;;;;;2.27;78.40;100588.12;6720625;26;33989;-69
2021/12/12 11:19:51;;;;;;;8.45;4.65;;;;;;;2.38;78.10;100586.41;6720719;26;34738;-69
2021/12/12 11:23:04;;;;;;;10.30;4.65;;;;;;;2.29;78.30;100589.69;6719898;26;34092;-69
2021/12/12 11:26:13;;;;;;;6.62;4.07;;;;;;;2.43;78.20;100568.56;6720189;26;34692;-69
2021/12/12 11:29:21;;;;;;;7.72;4.45;;;;;;;2.39;78.03;100567.13;6720606;26;34293;-70
2021/12/12 11:32:29;;;;;;;7.95;3.58;;;;;;;2.44;77.61;100558.94;6720573;26;35223;-69
2021/12/12 11:35:33;;;;;;;8.50;3.97;;;;;;;2.43;77.32;100554.63;6720335;26;34912;-69
2021/12/12 11:39:01;;;;;;;11.32;5.40;;;;;;;2.37;77.71;100558.53;6720530;26;33870;-69
2021/12/12 11:42:08;;;;;;;8.88;4.12;;;;;;;2.43;77.44;100552.84;6700565;26;34036;-70
2021/12/12 11:45:12;;;;;;;7.47;3.85;;;;;;;2.50;76.43;100566.34;6720541;26;33940;-69
2021/12/12 11:48:35;;;;;;;8.27;4.28;;;;;;;2.46;76.97;100562.28;6720397;26;34027;-69
2021/12/12 11:51:50;;;;;;;9.27;4.25;;;;;;;2.48;77.22;100561.22;6720393;26;34224;-69
2021/12/12 11:55:12;;;;;;;8.15;4.45;;;;;;;2.48;77.29;100569.06;6720422;26;33846;-69
2021/12/12 11:58:30;;;;;;;6.93;4.00;;;;;;;2.50;76.72;100559.34;6720552;26;34313;-69
2021/12/12 12:01:47;;;;;;;6.95;3.80;;;;;;;2.49;76.20;100567.28;6720488;26;34648;-68
2021/12/12 12:05:09;;;;;;;8.68;4.30;;;;;;;2.80;75.75;100568.50;6720753;26;33982;-70
2021/12/12 12:08:21;;;;;;;10.43;3.90;;;;;;;3.01;74.90;100570.34;6720306;26;34246;-71
2021/12/12 12:11:33;;;;;;;7.32;4.30;;;;;;;3.12;73.64;100559.06;6720398;26;34020;-69
2021/12/12 12:15:02;;;;;;;7.40;3.75;;;;;;;3.13;74.00;100565.97;6720757;26;33926;-69
2021/12/12 12:18:38;;;;;;;6.78;3.62;;;;;;;3.16;73.39;100559.66;6720444;26;35252;-69
2021/12/12 12:21:52;;;;;;;6.78;4.00;;;;;;;3.14;74.09;100569.44;6685803;26;33970;-71
2021/12/12 12:25:15;;;;;;;8.05;4.05;;;;;;;3.33;72.70;100573.19;6749165;26;35213;-70
2021/12/12 12:28:18;;;;;;;7.30;3.83;;;;;;;3.25;73.17;100572.91;6729193;26;34085;-70
2021/12/12 12:31:54;;;;;;;7.37;3.78;;;;;;;3.19;72.98;100577.78;6749249;26;34629;-70
2021/12/12 12:35:44;;;;;;;8.88;4.07;;;;;;;3.31;72.92;100580.31;6748876;26;34091;-69
2021/12/12 12:39:31;;;;;;;10.25;4.20;;;;;;;3.20;72.65;100577.66;6748624;26;34101;-69
2021/12/12 12:43:11;;;;;;;7.68;3.83;;;;;;;2.89;73.71;100579.16;6748664;26;34834;-69
2021/12/12 12:46:51;;;;;;;9.43;4.07;;;;;;;2.78;73.83;100592.19;6748911;26;34791;-69
2021/12/12 12:50:31;;;;;;;8.20;3.50;;;;;;;2.76;73.97;100588.03;6748903;26;33943;-69
2021/12/12 12:53:39;;;;;;;7.87;4.10;;;;;;;2.74;73.97;100601.22;6748945;26;34284;-69
2021/12/12 12:57:21;;;;;;;6.35;3.60;;;;;;;2.73;73.48;100586.44;6748824;26;34076;-69
2021/12/12 13:00:28;;;;;;;9.57;4.07;;;;;;;2.66;74.20;100603.59;6748821;26;33961;-69
2021/12/12 13:03:46;;;;;;;5.50;3.30;;;;;;;2.61;73.95;100593.41;6748676;26;34137;-69
2021/12/12 13:07:12;;;;;;;7.57;3.33;;;;;;;2.66;73.87;100595.72;6748765;26;34116;-69
2021/12/12 13:10:21;;;;;;;9.95;3.70;;;;;;;2.63;74.39;100594.16;6749145;26;33904;-69
2021/12/12 13:13:30;;;;;;;10.13;4.47;;;;;;;2.55;74.75;100599.13;6749071;26;35357;-68
2021/12/12 13:16:42;;;;;;;8.52;3.40;;;;;;;2.53;74.97;100613.25;6748318;26;34447;-68
2021/12/12 13:19:59;;;;;;;8.60;4.22;;;;;;;2.57;74.68;100609.47;6748631;26;34399;-69
2021/12/12 13:23:15;;;;;;;8.73;3.87;;;;;;;2.48;74.97;100620.59;6748502;26;34717;-69
2021/12/12 13:26:26;;;;;;;10.43;3.87;;;;;;;2.44;74.87;100629.63;6748875;26;34417;-68
2021/12/12 13:29:50;;;;;;;6.97;3.70;;;;;;;2.48;75.11;100637.16;6748458;26;34051;-69
2021/12/12 13:33:02;;;;;;;7.87;4.03;;;;;;;2.53;74.73;100639.44;6748540;26;34722;-69
2021/12/12 13:36:28;;;;;;;7.72;3.70;;;;;;;2.61;74.37;100645.78;6728416;26;34056;-69
2021/12/12 13:39:52;;;;;;;8.82;4.25;;;;;;;2.63;74.89;100654.37;6748328;26;34054;-69
2021/12/12 13:43:13;;;;;;;7.18;3.80;;;;;;;2.64;74.03;100636.91;6748576;26;34086;-69
2021/12/12 13:46:42;;;;;;;6.22;3.37;;;;;;;2.58;74.79;100647.81;6748383;26;34780;-69
2021/12/12 13:49:58;;;;;;;6.45;3.12;;;;;;;2.72;73.64;100660.75;6748589;26;34840;-68
2021/12/12 13:53:04;;;;;;;9.65;3.92;;;;;;;2.81;73.70;100654.03;6748387;26;34066;-68
2021/12/12 13:56:21;;;;;;;8.43;3.92;;;;;;;2.80;73.46;100662.81;6748385;26;34739;-69
2021/12/12 13:59:33;;;;;;;7.32;3.60;;;;;;;2.72;74.26;100660.75;6748316;26;35378;-69
2021/12/12 14:02:38;;;;;;;6.72;4.00;;;;;;;2.69;73.49;100657.50;6728477;26;33964;-69
2021/12/12 14:05:44;;;;;;;11.68;4.37;;;;;;;2.76;73.62;100656.94;6748549;26;34726;-69
2021/12/12 14:08:52;;;;;;;8.82;4.43;;;;;;;2.63;74.10;100664.88;6748356;26;34055;-69
2021/12/12 14:11:59;;;;;;;10.75;4.55;;;;;;;2.63;73.51;100670.09;6748437;26;34091;-69
2021/12/12 14:15:16;;;;;;;7.37;3.80;;;;;;;2.65;73.79;100666.53;6748411;26;34072;-68
2021/12/12 14:18:21;;;;;;;11.32;4.57;;;;;;;2.63;74.03;100657.00;6748366;26;34604;-69
2021/12/12 14:21:24;;;;;;;12.57;4.15;;;;;;;2.37;75.20;100671.13;6748073;26;34283;-69
2021/12/12 14:24:31;;;;;;;8.68;4.43;;;;;;;2.39;75.40;100671.84;6748116;26;34124;-69
2021/12/12 14:27:35;;;;;;;7.65;3.97;;;;;;;2.27;75.23;100690.22;6748274;26;33942;-69
2021/12/12 14:30:44;;;;;;;8.93;4.35;;;;;;;2.31;75.45;100694.28;6748137;26;34678;-68
2021/12/12 14:33:55;;;;;;;9.73;4.55;;;;;;;2.21;75.93;100693.25;6728339;26;34337;-69
2021/12/12 14:37:03;;;;;;;12.20;4.80;;;;;;;2.13;75.61;100691.19;6747666;26;34107;-68
2021/12/12 14:40:15;;;;;;;8.68;4.68;;;;;;;2.06;76.44;100698.59;6747740;26;34182;-69
2021/12/12 14:43:24;;;;;;;8.70;4.40;;;;;;;2.02;76.68;100712.84;6748018;26;34562;-68
2021/12/12 14:46:35;;;;;;;8.75;4.65;;;;;;;1.92;nan;100703.97;6728530;26;33985;-68
2021/12/12 14:49:44;;;;;;;9.68;4.28;;;;;;;1.83;77.75;100706.38;6749253;26;34059;-68
2021/12/12 14:52:55;;;;;;;10.98;4.70;;;;;;;1.80;77.53;100707.38;6729491;26;34890;-68